東京/羽田 の空港の天気 - METARとTAF

東京国際空港 ( RJTT / HND ) - 東京都大田区
飛行場実況気象(Metar)
観測時間05/20 10:00 JST (05/20 01:00 UTC)
風向・風速南 5m/s
視程10km以上
天気現象
少しの雲 雲底高度 610m
全天の4割程度の雲 雲底高度 2130m
気温23℃
湿度53%
気圧1017hPa
METARRJTT 200100Z 18009KT 9999 FEW020 SCT070 BKN/// 23/13 Q1017 NOSIG RMK 1CU020 3AC070 A3004
過去の天気等 Google飛行場航空写真 Wunderground天気予報

過去48時間のMETAR

飛行場予報(TAF)
発表時間: 5/20 08:08 JST (5/19 23:08 UTC)
予報対象時間: 20日9時 JST ~ 21日15時 JST
風向・風速南 6m/s
視程10km以上
少しの雲 雲底高度 610m
全天の8割程度の雲 雲底高度 1520m
21日0時 JST ~ 21日3時 JST に徐々に
視程4000m
天気現象弱いしゅう雨 もや
少しの雲 雲底高度 150m
全天の8割程度の雲 雲底高度 240m
21日3時 JST ~ 21日6時 JST に徐々に
風向・風速南 11m/s
21日3時 JST ~ 21日9時 JST に一時的に
風向・風速南 14m/s 瞬間風速 20m/s
視程2000m
天気現象強いしゅう雨 もや
少しの雲 雲底高度 90m
全天の8割程度の雲 雲底高度 150m
21日12時 JST ~ 21日15時 JST に徐々に
風向・風速南 5m/s
TAF RJTT 192308Z 2000/2106 18012KT 9999 FEW020 BKN050
BECMG 2015/2018 4000 -SHRA BR FEW005 BKN008
BECMG 2018/2021 18022KT
TEMPO 2018/2100 18028G38KT 2000 +SHRA BR FEW003 BKN005
BECMG 2103/2106 18010KT
日本の空港のMETAR・TAFへのリンク

RJTT 東京国際空港
RJAA 新東京国際空港
RJBB 関西国際空港
RJOO 大阪空港
RJGG 中部国際空港
RJCC 新千歳空港
RJFF 福岡空港
ROAH 那覇空港


RJEC 旭川空港
RJCH 函館空港
RJCK 釧路空港
RJCM 女満別空港
RJCB 帯広空港
RJSA 青森空港
RJSS 仙台空港
RJSK 秋田空港
RJSF 福島空港
RJAH 茨城空港
RJSN 新潟空港
RJNT 富山空港
RJNK 小松飛行場
RJNS 静岡空港
RJOH 美保飛行場
RJOC 出雲空港
RJOB 岡山空港
RJOA 広島空港
RJOI 岩国飛行場
RJOT 高松空港
RJOM 松山空港
RJOK 高知空港
RJFR 北九州空港
RJFT 熊本空港
RJFU 長崎空港
RJFS 佐賀空港
RJFO 大分空港
RJFM 宮崎空港
RJFK 鹿児島空港
ROIG 石垣島空港
RJTY 横田飛行場
ROTM 普天間飛行場
RODN 嘉手納飛行場